Time;durP1;ratioP1;P1;durP2;ratioP2;P2;SDS_P1;SDS_P2;PMS_P1;PMS_P2;Temp;Humidity;BMP_temperature;BMP_pressure;BME280_temperature;BME280_humidity;BME280_pressure;Samples;Min_cycle;Max_cycle;Signal;HPM_P1;HPM_P2
2023/07/29 00:02:16;;;;;;;2.77;2.57;;;21.10;66.70;;;21.56;48.90;94825.66;5074365;28;20875;-61
2023/07/29 00:04:44;;;;;;;6.23;3.43;;;21.00;66.80;;;21.51;49.21;94820.94;5076075;28;20522;-63
2023/07/29 00:07:11;;;;;;;3.40;3.10;;;21.00;67.20;;;21.52;49.43;94825.25;5072242;28;20474;-63
2023/07/29 00:09:39;;;;;;;3.87;2.97;;;21.00;67.50;;;21.49;49.66;94829.16;5069448;28;20579;-59
2023/07/29 00:12:07;;;;;;;2.53;2.43;;;21.00;67.60;;;21.46;49.51;94829.56;5066544;28;20881;-62
2023/07/29 00:14:35;;;;;;;3.33;3.03;;;20.90;67.70;;;21.42;49.57;94822.97;5072225;28;20532;-58
2023/07/29 00:17:02;;;;;;;5.13;2.27;;;20.90;67.60;;;21.35;49.54;94811.47;5069257;28;20494;-63
2023/07/29 00:19:30;;;;;;;3.07;2.77;;;20.90;67.70;;;21.28;49.65;94816.81;5073876;28;20512;-63
2023/07/29 00:21:57;;;;;;;3.23;2.90;;;20.80;67.50;;;21.21;49.53;94816.00;5066973;28;20479;-59
2023/07/29 00:24:24;;;;;;;3.03;2.83;;;20.70;67.40;;;21.14;49.74;94818.69;5072420;28;20458;-60
2023/07/29 00:26:51;;;;;;;2.60;2.40;;;20.70;67.90;;;21.08;49.93;94816.00;5069800;28;20479;-63
2023/07/29 00:29:19;;;;;;;4.70;3.30;;;20.60;68.00;;;21.03;50.04;94813.97;5074879;28;20447;-59
2023/07/29 00:31:47;;;;;;;2.80;2.60;;;20.50;67.90;;;21.00;49.98;94809.03;5069942;28;20560;-57
2023/07/29 00:34:18;;;;;;;5.13;2.63;;;20.50;68.10;;;20.98;50.07;94810.28;5073968;28;20480;-58
2023/07/29 00:36:45;;;;;;;5.47;2.80;;;20.50;68.30;;;20.95;50.05;94811.50;5072810;28;20482;-58
2023/07/29 00:39:12;;;;;;;4.03;2.83;;;20.40;68.40;;;20.92;50.19;94812.72;5077110;28;21049;-64
2023/07/29 00:41:40;;;;;;;4.60;2.70;;;20.40;68.40;;;20.88;50.61;94808.84;5074953;28;20478;-63
2023/07/29 00:44:07;;;;;;;3.40;2.73;;;20.40;68.90;;;20.85;50.66;94809.25;5072123;28;20469;-63
2023/07/29 00:46:35;;;;;;;4.10;2.80;;;20.40;68.80;;;20.82;50.60;94814.16;5070966;28;20467;-63
2023/07/29 00:49:04;;;;;;;4.37;2.90;;;20.30;69.00;;;20.77;50.74;94812.94;5078744;28;20450;-59
2023/07/29 00:51:31;;;;;;;4.40;2.73;;;20.30;69.20;;;20.76;50.71;94813.97;5083437;28;21010;-57
2023/07/29 00:53:58;;;;;;;3.00;2.70;;;20.30;69.20;;;20.74;50.85;94810.69;5077200;28;21342;-58
2023/07/29 00:56:25;;;;;;;2.67;2.57;;;20.20;69.20;;;20.72;51.25;94811.91;5082224;28;20477;-63
2023/07/29 00:58:58;;;;;;;2.77;2.57;;;20.20;69.50;;;20.70;50.97;94814.78;5077621;28;20954;-63
2023/07/29 01:01:25;;;;;;;3.00;2.80;;;20.20;69.70;;;20.68;51.00;94808.81;5078297;28;20481;-59
2023/07/29 01:03:53;;;;;;;2.43;2.23;;;20.20;69.60;;;20.64;50.92;94804.88;5080557;28;20446;-59
2023/07/29 01:06:27;;;;;;;2.43;2.30;;;20.10;69.80;;;20.61;51.43;94799.94;5075685;28;20476;-58
2023/07/29 01:09:02;;;;;;;2.73;2.50;;;20.10;69.90;;;20.58;51.84;94803.00;5077459;28;20939;-63
2023/07/29 01:11:37;;;;;;;3.87;2.87;;;20.10;70.10;;;20.56;51.51;94800.53;5080503;28;21033;-62
2023/07/29 01:14:10;;;;;;;5.83;3.07;;;20.10;70.20;;;20.53;51.52;94802.81;5076249;28;20854;-63
2023/07/29 01:16:44;;;;;;;4.20;2.50;;;20.00;70.30;;;20.50;51.84;94805.88;5081151;28;20967;-59
2023/07/29 01:19:19;;;;;;;2.80;2.67;;;20.00;70.40;;;20.47;51.69;94807.09;5072678;28;20442;-64
2023/07/29 01:21:47;;;;;;;3.53;2.50;;;20.00;70.50;;;20.46;51.66;94805.44;5079615;28;21001;-63
2023/07/29 01:24:16;;;;;;;3.10;2.60;;;20.00;70.70;;;20.44;51.59;94804.84;5075604;28;20457;-63
2023/07/29 01:26:43;;;;;;;2.67;2.47;;;20.00;70.90;;;20.41;51.83;94808.72;5078210;28;20508;-64
2023/07/29 01:29:11;;;;;;;3.10;2.80;;;19.90;70.80;;;20.39;52.07;94805.44;5073271;28;20550;-63
2023/07/29 01:31:42;;;;;;;3.10;2.80;;;19.90;71.00;;;20.38;52.24;94803.78;5072810;28;20479;-58
2023/07/29 01:34:14;;;;;;;4.10;2.97;;;19.90;71.50;;;20.35;52.35;94806.88;5080304;28;20440;-61
2023/07/29 01:36:41;;;;;;;2.23;2.10;;;19.80;71.20;;;20.32;52.26;94801.13;5074664;28;20473;-62
2023/07/29 01:39:11;;;;;;;2.80;2.70;;;19.80;71.20;;;20.29;52.28;94802.31;5074495;28;21064;-58
2023/07/29 01:41:40;;;;;;;3.80;3.30;;;19.80;71.20;;;20.26;52.51;94805.41;5071595;28;21023;-62
2023/07/29 01:44:07;;;;;;;4.70;2.90;;;19.80;71.10;;;20.25;51.95;94803.78;5073694;28;20447;-58
2023/07/29 01:46:35;;;;;;;3.90;2.87;;;19.80;71.20;;;20.23;52.25;94809.31;5075331;28;20466;-58
2023/07/29 01:49:02;;;;;;;3.17;2.90;;;19.80;71.30;;;20.23;52.46;94806.66;5075205;28;20443;-62
2023/07/29 01:51:29;;;;;;;3.27;2.97;;;19.70;71.60;;;20.20;52.46;94803.53;5074008;28;21006;-63
2023/07/29 01:53:58;;;;;;;3.17;2.93;;;19.70;71.50;;;20.17;52.61;94803.94;5074666;28;20459;-57
2023/07/29 01:56:26;;;;;;;3.17;2.97;;;19.70;71.70;;;20.17;52.32;94806.59;5082311;28;20865;-62
2023/07/29 01:58:54;;;;;;;3.50;2.93;;;19.70;71.80;;;20.16;52.34;94807.66;5074063;28;20447;-63
2023/07/29 02:01:22;;;;;;;2.80;2.43;;;19.70;71.60;;;20.14;52.07;94801.66;5072156;28;20478;-62
2023/07/29 02:03:54;;;;;;;4.50;2.93;;;19.60;71.60;;;20.11;52.64;94799.41;5078033;28;20458;-56
2023/07/29 02:06:21;;;;;;;16.00;3.57;;;19.60;71.90;;;20.09;52.54;94806.78;5070920;28;20471;-57
2023/07/29 02:08:49;;;;;;;2.90;2.70;;;19.60;71.90;;;20.07;52.35;94812.34;5070307;28;20987;-57
2023/07/29 02:11:16;;;;;;;4.23;3.00;;;19.60;72.00;;;20.03;52.80;94809.25;5075182;28;20878;-58
2023/07/29 02:13:43;;;;;;;6.70;2.73;;;19.60;72.00;;;20.00;52.54;94812.31;5075397;28;20481;-63
2023/07/29 02:16:12;;;;;;;3.97;3.63;;;19.50;71.90;;;19.98;53.00;94816.22;5074232;28;21022;-58
2023/07/29 02:18:39;;;;;;;4.20;2.70;;;19.50;72.10;;;19.95;52.77;94817.41;5079078;28;20529;-56
2023/07/29 02:21:06;;;;;;;5.10;2.73;;;19.50;72.30;;;19.94;52.58;94818.47;5075512;28;20473;-62
2023/07/29 02:23:34;;;;;;;3.63;3.30;;;19.40;72.50;;;19.92;52.79;94809.81;5072529;28;20520;-63
2023/07/29 02:26:01;;;;;;;4.60;2.30;;;19.40;72.60;;;19.90;52.82;94814.53;5075211;28;20474;-57
2023/07/29 02:28:28;;;;;;;3.13;2.83;;;19.40;72.50;;;19.90;52.97;94809.19;5077597;28;20954;-63
2023/07/29 02:33:49;;;;;;;4.23;3.30;;;19.40;72.60;;;19.77;53.10;94806.44;5114432;27;20510;-58
2023/07/29 02:36:16;;;;;;;8.63;2.77;;;19.30;72.30;;;19.70;53.44;94807.25;5084427;28;20474;-59
2023/07/29 02:38:43;;;;;;;6.17;4.17;;;19.30;72.50;;;19.65;53.39;94811.53;5089539;28;20458;-57
2023/07/29 02:41:12;;;;;;;7.07;2.57;;;19.20;72.50;;;19.59;53.18;94810.44;5090266;28;20496;-57
2023/07/29 02:43:40;;;;;;;4.37;2.50;;;19.20;72.60;;;19.55;53.61;94811.03;5087317;28;20543;-58
2023/07/29 02:46:08;;;;;;;7.40;3.93;;;19.10;72.70;;;19.49;53.78;94813.47;5085503;28;20473;-59
2023/07/29 02:48:35;;;;;;;10.87;3.30;;;19.10;73.60;;;19.48;54.40;94821.69;5088740;28;20808;-62
2023/07/29 02:51:04;;;;;;;16.97;4.07;;;19.00;74.00;;;19.48;54.45;94816.34;5087429;28;20520;-58
2023/07/29 02:53:31;;;;;;;4.00;3.17;;;19.00;74.10;;;19.49;54.37;94815.34;5091254;28;20557;-65
2023/07/29 02:55:58;;;;;;;2.97;2.73;;;19.00;74.20;;;19.47;54.17;94825.38;5085438;28;20478;-64
2023/07/29 02:58:26;;;;;;;3.40;3.10;;;19.00;73.50;;;19.44;53.78;94817.75;5089308;28;20446;-58
2023/07/29 03:00:53;;;;;;;3.30;3.00;;;19.00;73.60;;;19.39;54.57;94823.66;5089489;28;20508;-58
2023/07/29 03:03:20;;;;;;;5.33;2.90;;;19.00;74.40;;;19.37;54.56;94830.25;5088782;28;20919;-64
2023/07/29 03:05:48;;;;;;;3.63;2.83;;;18.90;74.20;;;19.37;54.58;94836.38;5084556;28;20501;-64
2023/07/29 03:08:17;;;;;;;3.10;2.90;;;18.90;74.50;;;19.42;54.15;94833.13;5091571;28;20537;-60
2023/07/29 03:10:44;;;;;;;4.43;3.33;;;18.90;74.50;;;19.42;54.23;94836.63;5084526;28;20473;-64
2023/07/29 03:13:11;;;;;;;3.53;3.20;;;18.90;74.50;;;19.43;54.50;94824.94;5092704;28;20505;-65
2023/07/29 03:15:38;;;;;;;4.67;2.90;;;19.00;74.80;;;19.44;54.66;94831.09;5084792;28;20470;-58
2023/07/29 03:18:05;;;;;;;3.13;2.93;;;19.00;74.90;;;19.43;54.15;94830.28;5090160;28;20445;-64
2023/07/29 03:20:33;;;;;;;3.17;2.87;;;19.00;74.80;;;19.43;54.76;94832.13;5083606;28;20477;-63
2023/07/29 03:23:01;;;;;;;5.03;3.50;;;19.00;74.90;;;19.41;54.92;94834.16;5090717;28;20659;-58
2023/07/29 03:25:29;;;;;;;4.00;3.60;;;18.90;75.00;;;19.42;54.48;94843.81;5084885;28;20474;-57
2023/07/29 03:27:58;;;;;;;4.70;3.00;;;18.90;75.00;;;19.41;55.00;94840.31;5088086;28;20511;-57
2023/07/29 03:30:26;;;;;;;4.17;2.70;;;18.90;75.10;;;19.41;54.65;94842.16;5089856;28;21109;-61
2023/07/29 03:32:53;;;;;;;3.40;3.10;;;18.90;75.40;;;19.40;55.28;94844.00;5085911;28;20498;-58
2023/07/29 03:35:20;;;;;;;3.87;3.17;;;18.90;75.80;;;19.40;54.81;94832.53;5087978;28;20552;-58
2023/07/29 03:37:48;;;;;;;11.90;2.93;;;18.90;75.40;;;19.42;55.13;94833.13;5088099;28;20450;-56
2023/07/29 03:40:15;;;;;;;3.00;2.80;;;18.90;75.60;;;19.43;54.67;94826.78;5086411;28;20466;-59
2023/07/29 03:42:43;;;;;;;6.60;3.67;;;19.00;75.80;;;19.44;54.94;94839.94;5090530;28;20445;-59
2023/07/29 03:45:11;;;;;;;4.60;3.10;;;19.00;75.90;;;19.46;55.12;94829.06;5071813;28;20463;-63
2023/07/29 03:47:39;;;;;;;8.77;3.57;;;19.00;76.10;;;19.47;54.83;94831.53;5080928;28;20462;-61
2023/07/29 03:50:07;;;;;;;5.00;3.80;;;19.00;75.70;;;19.48;54.89;94830.50;5070906;28;20470;-61
2023/07/29 03:52:34;;;;;;;5.40;3.57;;;19.00;75.80;;;19.51;54.63;94831.97;5071995;28;20490;-57
2023/07/29 03:55:01;;;;;;;12.27;3.80;;;19.00;75.80;;;19.51;54.87;94837.31;5076329;28;20497;-56
2023/07/29 03:57:29;;;;;;;5.23;3.60;;;19.00;75.50;;;19.52;55.06;94822.94;5071008;28;20451;-59
2023/07/29 03:59:58;;;;;;;4.53;4.13;;;19.10;75.60;;;19.54;54.60;94831.56;5082790;28;20565;-61
2023/07/29 04:02:25;;;;;;;9.20;3.67;;;19.00;76.20;;;19.56;54.61;94832.19;5073235;28;20455;-62
2023/07/29 04:04:53;;;;;;;3.37;3.17;;;19.10;75.60;;;19.61;54.57;94831.59;5078604;28;20450;-57
2023/07/29 04:07:20;;;;;;;3.33;3.10;;;19.10;75.30;;;19.63;54.38;94843.72;5068783;28;20455;-63
2023/07/29 04:09:48;;;;;;;3.17;2.87;;;19.20;75.20;;;19.64;54.25;94840.06;5073701;28;20450;-62
2023/07/29 04:12:16;;;;;;;3.60;3.30;;;19.20;75.10;;;19.66;54.44;94845.19;5075442;28;20490;-60
2023/07/29 04:14:43;;;;;;;3.93;2.80;;;19.20;75.00;;;19.67;54.11;94842.34;5073025;28;20522;-56
2023/07/29 04:17:12;;;;;;;4.20;3.70;;;19.20;74.70;;;19.70;53.97;94841.94;5076030;28;20460;-57
2023/07/29 04:19:39;;;;;;;2.90;2.70;;;19.20;74.60;;;19.71;54.11;94837.41;5073715;28;20442;-59
2023/07/29 04:22:06;;;;;;;3.93;3.63;;;19.20;74.50;;;19.66;53.56;94845.19;5069464;28;20973;-56
2023/07/29 04:24:33;;;;;;;3.83;3.10;;;19.20;74.50;;;19.59;53.94;94841.66;5075938;28;20451;-59
2023/07/29 04:27:01;;;;;;;4.50;3.47;;;19.10;74.50;;;19.58;53.97;94851.50;5070247;28;21033;-59
2023/07/29 04:29:28;;;;;;;6.53;3.40;;;19.20;74.70;;;19.60;54.65;94840.66;5078134;28;20821;-60
2023/07/29 04:31:55;;;;;;;4.10;2.47;;;19.10;75.10;;;19.66;54.38;94855.88;5071630;28;21032;-56
2023/07/29 04:34:24;;;;;;;4.37;2.80;;;19.10;75.40;;;19.74;54.28;94850.38;5074943;28;20462;-59
2023/07/29 04:36:51;;;;;;;3.40;3.20;;;19.20;75.20;;;19.80;54.56;94846.94;5077875;28;20552;-60
2023/07/29 04:39:18;;;;;;;21.47;4.07;;;19.30;75.60;;;19.90;54.46;94849.22;5071703;28;20941;-58
2023/07/29 04:41:46;;;;;;;6.97;3.07;;;19.40;75.40;;;19.99;53.94;94856.06;5074842;28;20688;-59
2023/07/29 04:44:13;;;;;;;5.27;2.80;;;19.40;75.30;;;20.05;53.80;94855.25;5072540;28;20454;-58
2023/07/29 04:46:40;;;;;;;3.87;3.60;;;19.50;75.10;;;20.13;53.72;94850.78;5070917;28;20474;-62
2023/07/29 04:49:07;;;;;;;3.70;3.40;;;19.60;75.00;;;20.15;53.96;94857.53;5070823;28;20455;-61
2023/07/29 04:51:37;;;;;;;10.13;2.67;;;19.60;74.60;;;20.20;54.13;94862.28;5073338;28;20480;-60
2023/07/29 04:54:04;;;;;;;11.03;3.00;;;19.70;74.90;;;20.27;53.91;94865.81;5072835;28;20910;-59
2023/07/29 04:56:31;;;;;;;3.97;3.57;;;19.70;74.90;;;20.36;53.79;94872.63;5071234;28;20470;-55
2023/07/29 04:58:58;;;;;;;3.87;3.57;;;19.80;74.90;;;20.46;53.84;94871.44;5075253;28;20450;-57
2023/07/29 05:01:26;;;;;;;6.27;3.60;;;19.90;75.60;;;20.56;53.42;94872.69;5075078;28;20469;-63
2023/07/29 05:03:53;;;;;;;8.90;3.13;;;20.00;74.50;;;20.63;53.30;94878.03;5077961;28;20450;-65
2023/07/29 05:06:20;;;;;;;8.73;4.70;;;20.10;74.30;;;20.68;53.46;94885.50;5071133;28;20540;-63
2023/07/29 05:08:49;;;;;;;4.77;4.33;;;20.20;74.00;;;20.72;52.92;94876.06;5075684;28;20482;-64
2023/07/29 05:11:16;;;;;;;8.90;3.90;;;20.20;73.60;;;20.74;53.03;94869.47;5076197;28;20842;-58
2023/07/29 05:13:44;;;;;;;7.37;3.83;;;20.30;73.60;;;20.78;52.96;94878.72;5069215;28;20858;-57
2023/07/29 05:16:11;;;;;;;5.33;4.20;;;20.20;73.50;;;20.80;52.97;94883.88;5074236;28;20516;-58
2023/07/29 05:18:38;;;;;;;7.30;4.20;;;20.30;73.60;;;20.82;52.83;94879.16;5074463;28;21034;-56
2023/07/29 05:21:05;;;;;;;6.10;3.80;;;20.30;73.60;;;20.88;52.96;94874.84;5074707;28;20470;-64
2023/07/29 05:23:33;;;;;;;10.73;4.53;;;20.40;74.00;;;20.96;53.13;94877.34;5070215;28;20527;-66
2023/07/29 05:26:01;;;;;;;5.70;4.30;;;20.40;73.70;;;21.05;52.98;94881.44;5074377;28;21010;-64
2023/07/29 05:28:29;;;;;;;6.23;5.30;;;20.50;73.80;;;21.14;52.97;94885.53;5069152;28;20501;-64
2023/07/29 05:30:56;;;;;;;5.00;4.27;;;20.60;73.90;;;21.27;52.89;94883.91;5071310;28;20519;-58
2023/07/29 05:33:23;;;;;;;5.80;4.00;;;20.70;74.10;;;21.45;52.64;94891.31;5073531;28;20490;-64
2023/07/29 05:35:51;;;;;;;7.13;5.10;;;20.90;74.20;;;21.66;52.61;94882.28;5069948;28;20470;-64
2023/07/29 05:38:18;;;;;;;5.47;4.80;;;21.00;74.60;;;21.90;52.35;94886.13;5069957;28;21024;-56
2023/07/29 05:40:45;;;;;;;9.13;4.83;;;21.20;73.60;;;22.10;51.26;94886.06;5074531;28;20474;-56
2023/07/29 05:43:14;;;;;;;15.33;4.60;;;21.50;72.90;;;22.32;51.47;94886.66;5069124;28;20447;-57
2023/07/29 05:45:41;;;;;;;4.90;4.33;;;21.60;72.40;;;22.56;50.68;94881.59;5077526;28;21028;-57
2023/07/29 05:48:08;;;;;;;4.77;3.90;;;21.80;72.10;;;22.77;50.99;94893.00;5068346;28;20454;-56
2023/07/29 05:50:36;;;;;;;6.40;4.00;;;22.10;71.70;;;22.99;50.32;94888.13;5076547;28;20474;-59
2023/07/29 05:53:03;;;;;;;9.27;4.30;;;22.30;71.30;;;23.21;49.65;94894.81;5067873;28;20486;-57
2023/07/29 05:55:30;;;;;;;11.10;4.00;;;22.50;71.00;;;23.42;50.03;94884.75;5074480;28;20792;-60
2023/07/29 05:57:57;;;;;;;8.50;4.40;;;22.70;70.60;;;23.68;49.42;94888.25;5075900;28;20455;-55
2023/07/29 06:00:26;;;;;;;8.43;4.90;;;22.90;70.00;;;23.93;49.32;94882.84;5073000;28;20470;-61
2023/07/29 06:02:53;;;;;;;6.63;4.50;;;23.20;70.00;;;24.16;48.75;94895.63;5069007;28;20454;-56
2023/07/29 06:05:20;;;;;;;4.47;4.03;;;23.40;69.40;;;24.40;47.85;94893.06;5074801;28;20471;-59
2023/07/29 06:07:48;;;;;;;4.60;3.93;;;23.60;68.80;;;24.59;47.51;94892.03;5072161;28;20449;-57
2023/07/29 06:10:18;;;;;;;6.50;4.17;;;23.80;68.40;;;24.78;47.53;94882.03;5071047;28;20477;-60
2023/07/29 06:12:45;;;;;;;8.40;4.87;;;24.00;68.80;;;25.02;47.22;94887.53;5071973;28;20478;-57
2023/07/29 06:15:12;;;;;;;5.47;4.63;;;24.20;67.50;;;25.23;46.60;94883.47;5072826;28;20990;-59
2023/07/29 06:17:41;;;;;;;4.40;4.10;;;24.50;67.10;;;25.41;46.19;94885.28;5068712;28;20446;-60
2023/07/29 06:20:10;;;;;;;4.33;4.03;;;24.70;66.60;;;25.57;45.86;94881.88;5073274;28;20936;-59
2023/07/29 06:22:37;;;;;;;7.93;4.40;;;24.80;66.20;;;25.75;45.60;94875.56;5070251;28;20957;-60
2023/07/29 06:25:05;;;;;;;8.07;4.73;;;25.00;65.90;;;25.95;45.70;94869.81;5078103;28;20508;-58
2023/07/29 06:27:32;;;;;;;4.87;4.47;;;25.20;65.30;;;26.14;45.20;94877.78;5068410;28;20457;-59
2023/07/29 06:29:59;;;;;;;7.03;4.40;;;25.40;65.50;;;26.29;44.87;94870.03;5069788;28;20457;-59
2023/07/29 06:32:26;;;;;;;10.63;5.63;;;25.50;64.50;;;26.43;44.45;94875.97;5074076;28;20516;-58
2023/07/29 06:34:55;;;;;;;7.60;5.27;;;25.70;64.00;;;26.58;44.21;94870.03;5068520;28;20504;-59
2023/07/29 06:37:22;;;;;;;11.90;5.00;;;25.80;63.60;;;26.66;44.28;94866.16;5070545;28;20461;-58
2023/07/29 06:39:50;;;;;;;10.60;4.57;;;25.90;63.10;;;26.77;43.92;94864.50;5067749;28;20450;-59
2023/07/29 06:42:17;;;;;;;8.70;4.50;;;26.00;63.10;;;26.94;43.52;94869.91;5074282;28;20514;-63
2023/07/29 06:44:45;;;;;;;4.83;4.43;;;26.10;62.70;;;27.08;43.36;94859.63;5068351;28;20535;-63
2023/07/29 06:47:13;;;;;;;9.77;4.33;;;26.30;62.40;;;27.25;43.31;94856.97;5075344;28;20499;-63
2023/07/29 06:49:40;;;;;;;4.40;4.00;;;26.40;62.00;;;27.42;43.02;94855.13;5073647;28;20500;-63
2023/07/29 06:52:09;;;;;;;7.50;4.10;;;26.60;61.80;;;27.65;42.86;94858.69;5069319;28;20470;-59
2023/07/29 06:54:36;;;;;;;17.03;5.03;;;26.80;61.80;;;27.87;42.47;94867.69;5072965;28;21102;-57
2023/07/29 06:57:04;;;;;;;19.20;4.63;;;27.00;61.30;;;28.09;42.66;94858.81;5068239;28;20553;-64
2023/07/29 06:59:31;;;;;;;12.03;4.77;;;27.20;60.40;;;28.30;42.07;94861.78;5072560;28;20452;-60
2023/07/29 07:01:59;;;;;;;10.97;4.50;;;27.50;60.10;;;28.50;41.46;94858.50;5071538;28;20470;-63
2023/07/29 07:04:27;;;;;;;5.33;4.83;;;27.60;59.50;;;28.68;41.33;94871.75;5076293;28;20460;-58
2023/07/29 07:06:54;;;;;;;6.80;4.77;;;27.80;59.10;;;28.86;40.32;94865.19;5073276;28;20549;-57
2023/07/29 07:09:23;;;;;;;9.63;4.33;;;28.00;58.70;;;29.04;40.44;94863.19;5067723;28;21025;-59
2023/07/29 07:11:50;;;;;;;10.23;4.80;;;28.20;58.20;;;29.21;40.34;94869.31;5074740;28;20530;-58
2023/07/29 07:14:17;;;;;;;9.20;4.57;;;28.30;57.80;;;29.40;39.71;94860.81;5066780;28;20497;-64
2023/07/29 07:16:44;;;;;;;6.30;4.83;;;28.50;57.50;;;29.60;39.42;94855.53;5071134;28;20470;-64
2023/07/29 07:19:12;;;;;;;5.93;4.07;;;28.70;57.00;;;29.78;39.02;94859.75;5070539;28;20454;-62
2023/07/29 07:21:40;;;;;;;20.07;4.00;;;28.90;57.50;;;29.95;39.20;94854.19;5070864;28;20474;-59
2023/07/29 07:24:07;;;;;;;11.13;4.20;;;29.10;56.60;;;30.14;38.54;94854.53;5076724;28;20449;-64
2023/07/29 07:26:36;;;;;;;4.87;4.37;;;29.30;56.00;;;30.28;38.21;94848.66;5073125;28;20474;-59
2023/07/29 07:29:03;;;;;;;5.00;3.67;;;29.40;55.70;;;30.34;37.28;94848.41;5076366;28;20199;-63
2023/07/29 07:31:34;;;;;;;5.57;3.77;;;29.50;55.00;;;30.27;36.96;94857.88;5074180;28;20239;-57
2023/07/29 07:34:02;;;;;;;9.40;4.03;;;29.40;54.50;;;30.15;37.52;94845.34;5074066;28;20226;-65
2023/07/29 07:36:30;;;;;;;4.10;3.00;;;29.40;54.50;;;30.09;37.30;94840.97;5073607;28;20233;-64
2023/07/29 07:38:57;;;;;;;6.93;4.20;;;29.30;54.60;;;30.06;37.00;94840.69;5073781;28;20281;-58
2023/07/29 07:41:25;;;;;;;3.83;3.50;;;29.20;54.40;;;30.03;37.80;94837.41;5076292;28;20223;-63
2023/07/29 07:43:53;;;;;;;23.50;4.37;;;29.20;54.40;;;30.18;37.72;94835.88;5072040;28;20501;-58
2023/07/29 07:46:20;;;;;;;13.50;3.60;;;29.40;54.60;;;30.35;37.30;94838.34;5076699;28;20476;-63
2023/07/29 07:48:48;;;;;;;3.00;2.77;;;29.50;54.20;;;30.44;36.44;94841.41;5071194;28;20960;-59
2023/07/29 07:51:15;;;;;;;6.87;4.23;;;29.60;53.60;;;30.48;36.75;94839.81;5068929;28;20290;-59
2023/07/29 07:53:42;;;;;;;5.40;3.43;;;29.60;53.70;;;30.66;36.82;94846.63;5077084;28;20631;-57
2023/07/29 07:56:09;;;;;;;5.10;3.27;;;29.80;53.70;;;30.89;36.33;94848.88;5070341;28;20220;-64
2023/07/29 07:58:37;;;;;;;10.77;4.20;;;30.00;53.20;;;31.05;36.38;94844.31;5078327;28;20208;-64
2023/07/29 08:01:06;;;;;;;6.03;4.10;;;30.10;52.90;;;31.27;35.76;94849.50;5078358;28;20216;-59
2023/07/29 08:03:33;;;;;;;6.30;3.70;;;30.40;52.90;;;31.53;35.86;94844.06;5074571;28;20203;-58
2023/07/29 08:06:01;;;;;;;3.63;3.30;;;30.70;52.60;;;31.80;35.30;94841.06;5073590;28;20665;-64
2023/07/29 08:08:28;;;;;;;7.10;3.65;;;30.90;52.60;;;32.10;35.34;94850.28;5072631;28;20200;-64
2023/07/29 08:10:56;;;;;;;4.97;3.38;;;31.20;52.30;;;32.42;34.93;94840.09;5075804;28;20228;-57
2023/07/29 08:13:23;;;;;;;6.38;2.97;;;31.40;51.70;;;32.73;34.41;94853.63;5071179;28;20235;-59
2023/07/29 08:15:51;;;;;;;5.57;2.88;;;31.80;51.00;;;32.93;33.51;94850.75;5073921;28;20228;-59
2023/07/29 08:18:19;;;;;;;11.55;4.05;;;32.00;50.10;;;32.91;33.20;94844.78;5075798;28;20195;-57
2023/07/29 08:20:54;;;;;;;7.97;2.70;;;32.10;49.50;;;32.88;33.36;94848.09;5072503;28;20277;-63
2023/07/29 08:23:22;;;;;;;4.05;3.35;;;32.10;49.80;;;33.07;33.38;94850.94;5075030;28;20286;-64
2023/07/29 08:25:54;;;;;;;3.50;3.20;;;32.20;50.00;;;33.35;33.47;94845.88;5072334;28;20971;-58
2023/07/29 08:28:21;;;;;;;4.32;3.35;;;32.50;49.90;;;33.64;32.72;94847.84;5072029;28;20295;-63
2023/07/29 08:30:48;;;;;;;22.38;3.83;;;32.80;49.40;;;33.93;32.14;94845.94;5071407;28;20363;-57
2023/07/29 08:33:16;;;;;;;6.03;3.53;;;33.00;48.90;;;34.20;32.67;94849.22;5069398;28;20211;-62
2023/07/29 08:35:44;;;;;;;7.80;2.90;;;33.30;48.80;;;34.43;31.62;94844.88;5076099;28;20239;-64
2023/07/29 08:38:12;;;;;;;3.08;2.88;;;33.50;47.70;;;34.50;31.20;94837.13;5070496;28;20204;-64
2023/07/29 08:40:42;;;;;;;5.88;3.17;;;33.60;47.40;;;34.58;31.78;94839.22;5075662;28;20326;-63
2023/07/29 08:43:10;;;;;;;2.63;2.42;;;33.70;47.50;;;34.73;30.81;94832.72;5069581;28;20281;-57
2023/07/29 08:45:37;;;;;;;4.07;2.70;;;33.80;47.00;;;34.88;30.21;94828.22;5074923;28;20306;-62
2023/07/29 08:48:09;;;;;;;3.10;2.60;;;34.00;45.90;;;34.79;29.54;94828.03;5068750;28;20577;-59
2023/07/29 08:50:36;;;;;;;4.63;2.33;;;34.00;45.70;;;34.86;30.37;94824.94;5072333;28;20227;-57
2023/07/29 08:53:06;;;;;;;8.10;3.45;;;33.90;46.00;;;35.05;30.52;94819.50;5074154;28;20688;-61
2023/07/29 08:55:33;;;;;;;5.35;2.53;;;34.10;46.10;;;35.25;30.22;94826.56;5070819;28;20301;-56
2023/07/29 08:58:01;;;;;;;3.03;2.80;;;34.30;45.50;;;35.31;29.74;94828.16;5075019;28;20201;-60
2023/07/29 09:00:28;;;;;;;6.85;2.83;;;34.40;45.10;;;35.26;29.28;94815.38;5074075;28;20377;-56
2023/07/29 09:02:57;;;;;;;3.42;3.13;;;34.40;44.90;;;35.23;29.25;94818.66;5073446;28;20264;-57
2023/07/29 09:05:25;;;;;;;4.28;2.85;;;34.40;44.60;;;35.12;29.24;94811.72;5075998;28;20216;-60
2023/07/29 09:07:52;;;;;;;2.85;2.65;;;34.40;44.60;;;35.10;29.34;94808.47;5073865;28;20680;-58
2023/07/29 09:10:22;;;;;;;4.88;3.03;;;34.30;44.40;;;35.11;29.77;94812.84;5077494;28;20212;-58
2023/07/29 09:12:50;;;;;;;6.07;2.30;;;34.30;44.60;;;35.25;29.49;94807.44;5075437;28;20237;-59
2023/07/29 09:15:28;;;;;;;6.85;2.33;;;34.40;44.90;;;35.44;28.39;94805.47;5074065;28;20243;-59
2023/07/29 09:17:57;;;;;;;8.43;2.38;;;34.60;44.20;;;35.57;29.08;94798.41;5071828;28;20210;-57
2023/07/29 09:20:27;;;;;;;6.65;2.88;;;34.70;44.20;;;35.78;29.01;94795.38;5074673;28;20302;-60
2023/07/29 09:22:56;;;;;;;1.95;1.85;;;34.80;43.80;;;35.95;28.77;94798.31;5073783;28;20281;-60
2023/07/29 09:25:29;;;;;;;3.72;2.25;;;35.00;43.60;;;36.15;26.69;94797.09;5071033;28;20220;-56
2023/07/29 09:28:00;;;;;;;2.00;1.90;;;35.20;42.10;;;36.34;27.81;94788.81;5073514;28;20234;-59
2023/07/29 09:30:27;;;;;;;2.63;2.42;;;35.40;41.90;;;36.49;27.67;94795.09;5070159;28;20650;-60
2023/07/29 09:32:56;;;;;;;3.15;2.45;;;35.50;41.80;;;36.62;27.15;94794.25;5074345;28;20211;-59
2023/07/29 09:35:24;;;;;;;7.10;1.90;;;35.70;42.00;;;36.74;27.57;94799.25;5070756;28;20574;-59
2023/07/29 09:37:52;;;;;;;2.80;2.20;;;35.80;41.50;;;36.83;27.08;94789.16;5075273;28;20261;-56
2023/07/29 09:40:19;;;;;;;4.82;1.75;;;35.90;41.40;;;36.88;26.72;94796.47;5070415;28;20289;-57
2023/07/29 09:42:51;;;;;;;2.03;1.92;;;36.00;41.30;;;36.89;26.43;94782.44;5076286;28;20196;-59
2023/07/29 09:45:25;;;;;;;1.58;1.48;;;36.10;41.00;;;36.94;26.56;94784.25;5072406;28;20293;-57
2023/07/29 09:47:53;;;;;;;3.38;2.90;;;36.10;40.50;;;36.96;25.77;94776.53;5074175;28;20271;-59
2023/07/29 09:50:24;;;;;;;1.75;1.65;;;36.10;39.70;;;36.94;26.56;94782.31;5070172;28;20647;-58
2023/07/29 09:52:51;;;;;;;6.88;1.70;;;36.10;40.30;;;36.97;26.24;94784.44;5070283;28;20261;-59
2023/07/29 09:55:20;;;;;;;3.38;1.52;;;36.10;39.90;;;36.98;25.80;94782.50;5079628;28;20240;-60
2023/07/29 09:57:47;;;;;;;5.40;1.55;;;36.10;39.40;;;36.95;25.85;94780.38;5077592;28;20257;-60
2023/07/29 10:00:16;;;;;;;3.28;1.65;;;36.10;39.60;;;36.93;25.84;94783.44;5070926;28;20219;-58
2023/07/29 10:02:44;;;;;;;1.15;1.05;;;36.10;39.70;;;36.96;25.67;94776.53;5079497;28;20199;-57
2023/07/29 10:05:11;;;;;;;14.77;2.42;;;36.10;39.10;;;37.03;25.69;94768.69;5074323;28;20285;-60
2023/07/29 10:07:39;;;;;;;5.18;1.30;;;36.20;39.20;;;36.97;25.27;94767.19;5080304;28;20295;-57
2023/07/29 10:10:08;;;;;;;1.88;1.27;;;36.10;38.70;;;36.66;24.92;94762.38;5075072;28;20739;-58
2023/07/29 10:12:36;;;;;;;8.23;1.58;;;35.90;37.60;;;36.31;25.37;94756.53;5072856;28;20266;-60
2023/07/29 10:15:06;;;;;;;1.98;1.40;;;35.70;38.10;;;36.06;25.59;94758.66;5073519;28;20297;-60
2023/07/29 10:17:36;;;;;;;8.82;1.70;;;35.40;38.20;;;36.02;25.37;94749.44;5070184;28;20200;-57
2023/07/29 10:20:05;;;;;;;4.20;1.38;;;35.20;39.20;;;36.07;26.00;94751.28;5071590;28;20202;-59
2023/07/29 10:22:37;;;;;;;1.15;1.05;;;35.20;39.10;;;36.09;24.83;94746.28;5074085;28;20206;-60
2023/07/29 10:25:06;;;;;;;2.08;1.35;;;35.20;38.70;;;35.95;25.98;94743.56;5073101;28;20658;-61